Time;durP1;ratioP1;P1;durP2;ratioP2;P2;SDS_P1;SDS_P2;PMS_P1;PMS_P2;Temp;Humidity;BMP_temperature;BMP_pressure;BME280_temperature;BME280_humidity;BME280_pressure;Samples;Min_cycle;Max_cycle;Signal;HPM_P1;HPM_P2
2022/12/11 00:01:48;;;;;;;26.02;13.52;;;;;;;;;;5055651;28;20501;-76
2022/12/11 00:04:14;;;;;;;25.27;12.93;;;;;;;;;;5054401;28;20029;-76
2022/12/11 00:06:41;;;;;;;23.88;13.27;;;;;;;;;;5050882;28;20053;-76
2022/12/11 00:09:07;;;;;;;25.75;13.55;;;;;;;;;;5057909;28;20010;-77
2022/12/11 00:11:33;;;;;;;28.08;15.32;;;;;;;;;;5059143;28;20064;-76
2022/12/11 00:13:59;;;;;;;28.75;13.43;;;;;;;;;;5058828;28;20106;-76
2022/12/11 00:16:25;;;;;;;26.05;12.55;;;;;;;;;;5059395;28;20087;-77
2022/12/11 00:18:51;;;;;;;24.55;12.65;;;;;;;;;;5067724;23;20053;-77
2022/12/11 00:21:16;;;;;;;22.45;12.18;;;;;;;;;;5035411;28;20067;-78
2022/12/11 00:23:43;;;;;;;22.65;12.73;;;;;;;;;;5036161;28;20029;-76
2022/12/11 00:26:10;;;;;;;23.92;13.02;;;;;;;;;;5035880;28;20030;-78
2022/12/11 00:28:36;;;;;;;25.63;12.85;;;;;;;;;;5051365;28;20022;-78
2022/12/11 00:31:05;;;;;;;21.65;12.23;;;;;;;;;;5035041;28;20455;-78
2022/12/11 00:33:32;;;;;;;28.95;12.10;;;;;;;;;;5035300;28;20017;-78
2022/12/11 00:35:58;;;;;;;22.48;12.25;;;;;;;;;;5050612;28;20113;-78
2022/12/11 00:38:24;;;;;;;23.63;12.48;;;;;;;;;;5052570;28;20055;-77
2022/12/11 00:40:50;;;;;;;25.50;12.73;;;;;;;;;;5035762;28;20090;-77
2022/12/11 00:43:16;;;;;;;23.98;12.75;;;;;;;;;;5035694;28;20090;-77
2022/12/11 00:45:43;;;;;;;22.48;12.65;;;;;;;;;;5034706;28;20075;-77
2022/12/11 00:48:10;;;;;;;22.88;12.82;;;;;;;;;;5035643;28;20119;-78
2022/12/11 00:50:36;;;;;;;24.77;12.77;;;;;;;;;;5035433;28;20079;-77
2022/12/11 00:53:03;;;;;;;26.30;13.50;;;;;;;;;;5036261;28;20024;-79
2022/12/11 00:55:29;;;;;;;21.20;12.40;;;;;;;;;;5035631;28;20075;-77
2022/12/11 00:57:57;;;;;;;23.77;12.45;;;;;;;;;;5051474;28;20022;-76
2022/12/11 01:00:23;;;;;;;27.52;14.32;;;;;;;;;;5051748;28;20053;-80
2022/12/11 01:02:49;;;;;;;24.58;12.75;;;;;;;;;;5055593;28;20025;-78
2022/12/11 01:05:15;;;;;;;26.67;13.60;;;;;;;;;;5044285;28;20120;-79
2022/12/11 01:07:41;;;;;;;24.98;13.55;;;;;;;;;;5042663;28;20044;-75
2022/12/11 01:10:25;;;;;;;25.05;13.27;;;;;;;;;;5040666;28;20044;-77
2022/12/11 01:12:57;;;;;;;28.35;14.73;;;;;;;;;;5034927;28;20036;-78
2022/12/11 01:15:25;;;;;;;25.90;14.30;;;;;;;;;;5036343;28;20026;-79
2022/12/11 01:17:51;;;;;;;27.27;13.65;;;;;;;;;;5041241;28;20037;-78
2022/12/11 01:20:18;;;;;;;24.20;13.07;;;;;;;;;;5035993;28;20029;-77
2022/12/11 01:22:44;;;;;;;24.90;13.80;;;;;;;;;;5034484;28;20029;-79
2022/12/11 01:25:10;;;;;;;25.15;12.85;;;;;;;;;;5034837;28;20036;-76
2022/12/11 01:27:37;;;;;;;24.60;13.38;;;;;;;;;;5034248;28;20108;-78
2022/12/11 01:30:07;;;;;;;26.52;13.85;;;;;;;;;;5034558;28;20030;-76
2022/12/11 01:32:33;;;;;;;27.00;12.70;;;;;;;;;;5033499;28;20064;-78
2022/12/11 01:35:00;;;;;;;25.90;14.00;;;;;;;;;;5034117;28;20088;-78
2022/12/11 01:37:26;;;;;;;29.92;14.15;;;;;;;;;;5033714;28;20045;-77
2022/12/11 01:39:52;;;;;;;28.05;13.68;;;;;;;;;;5034904;28;20482;-79
2022/12/11 01:42:19;;;;;;;24.83;14.13;;;;;;;;;;5035750;28;20029;-79
2022/12/11 01:44:45;;;;;;;27.63;13.90;;;;;;;;;;5034846;28;20060;-77
2022/12/11 01:47:11;;;;;;;24.77;13.27;;;;;;;;;;5032901;28;20521;-77
2022/12/11 01:49:38;;;;;;;27.48;14.18;;;;;;;;;;5034475;28;20053;-79
2022/12/11 01:52:10;;;;;;;27.10;13.90;;;;;;;;;;5037810;28;20033;-78
2022/12/11 01:54:37;;;;;;;30.30;13.88;;;;;;;;;;5047087;28;20112;-76
2022/12/11 01:57:05;;;;;;;29.20;13.48;;;;;;;;;;5046998;28;20068;-81
2022/12/11 01:59:33;;;;;;;26.95;14.27;;;;;;;;;;5055927;28;20056;-80
2022/12/11 02:02:02;;;;;;;31.02;14.60;;;;;;;;;;5048031;28;20075;-78
2022/12/11 02:04:28;;;;;;;26.30;14.48;;;;;;;;;;5034602;28;20482;-78
2022/12/11 02:06:55;;;;;;;30.38;15.23;;;;;;;;;;5034086;28;20086;-81
2022/12/11 02:09:26;;;;;;;26.02;14.35;;;;;;;;;;5033055;28;20037;-77
2022/12/11 02:11:52;;;;;;;28.15;14.75;;;;;;;;;;5038390;28;20036;-78
2022/12/11 02:14:39;;;;;;;28.20;15.18;;;;;;;;;;5037182;28;20022;-78
2022/12/11 02:17:10;;;;;;;28.50;14.38;;;;;;;;;;5032814;28;20036;-77
2022/12/11 02:19:39;;;;;;;28.60;15.13;;;;;;;;;;5033333;28;20037;-79
2022/12/11 02:22:08;;;;;;;26.05;14.32;;;;;;;;;;5031176;28;20030;-79
2022/12/11 02:24:34;;;;;;;27.83;14.40;;;;;;;;;;5032752;28;20063;-80
2022/12/11 02:27:19;;;;;;;27.10;14.75;;;;;;;;;;5030974;28;20108;-77
2022/12/11 02:29:45;;;;;;;;;;;;;;;;;;5033377;28;20026;-79
2022/12/11 02:32:23;;;;;;;28.50;13.95;;;;;;;;;;5033883;28;19931;-79
2022/12/11 02:34:54;;;;;;;27.42;13.75;;;;;;;;;;5033421;28;20030;-79
2022/12/11 02:37:22;;;;;;;27.13;13.75;;;;;;;;;;5036510;28;20540;-76
2022/12/11 02:39:50;;;;;;;29.73;14.63;;;;;;;;;;5045581;28;20041;-80
2022/12/11 02:42:16;;;;;;;30.50;15.48;;;;;;;;;;5053977;28;20075;-80
2022/12/11 02:44:43;;;;;;;24.77;13.35;;;;;;;;;;5052428;28;20034;-78
2022/12/11 02:47:11;;;;;;;31.45;15.43;;;;;;;;;;5034701;28;20462;-77
2022/12/11 02:49:39;;;;;;;28.58;14.85;;;;;;;;;;5033175;28;20155;-78
2022/12/11 02:52:05;;;;;;;28.55;14.90;;;;;;;;;;5033154;28;20028;-78
2022/12/11 02:54:33;;;;;;;26.52;14.98;;;;;;;;;;5035669;28;20489;-77
2022/12/11 02:57:05;;;;;;;28.70;14.65;;;;;;;;;;5030589;28;20577;-76
2022/12/11 02:59:39;;;;;;;29.05;15.52;;;;;;;;;;5032718;28;20112;-77
2022/12/11 03:02:06;;;;;;;28.17;14.63;;;;;;;;;;5032189;28;20026;-79
2022/12/11 03:04:33;;;;;;;27.98;14.05;;;;;;;;;;5037211;28;20075;-77
2022/12/11 03:07:10;;;;;;;27.17;14.40;;;;;;;;;;5036639;28;20437;-77
2022/12/11 03:09:36;;;;;;;31.08;14.10;;;;;;;;;;5035901;28;20022;-78
2022/12/11 03:12:02;;;;;;;29.58;15.52;;;;;;;;;;5037688;28;20388;-76
2022/12/11 03:14:28;;;;;;;26.50;15.02;;;;;;;;;;5039568;28;20025;-76
2022/12/11 03:16:59;;;;;;;27.20;14.85;;;;;;;;;;5051094;28;20029;-77
2022/12/11 03:19:34;;;;;;;29.63;15.05;;;;;;;;;;5043404;28;20033;-78
2022/12/11 03:22:16;;;;;;;30.60;15.55;;;;;;;;;;5036220;28;20104;-77
2022/12/11 03:24:54;;;;;;;29.75;16.42;;;;;;;;;;5036359;28;20022;-76
2022/12/11 03:27:29;;;;;;;29.35;15.18;;;;;;;;;;5036165;28;20022;-77
2022/12/11 03:29:59;;;;;;;30.70;15.63;;;;;;;;;;5035949;28;20455;-77
2022/12/11 03:32:28;;;;;;;28.40;15.57;;;;;;;;;;5035825;28;20030;-77
2022/12/11 03:35:18;;;;;;;28.23;15.60;;;;;;;;;;5037779;28;20064;-76
2022/12/11 03:37:44;;;;;;;30.17;15.07;;;;;;;;;;5036007;28;20117;-77
2022/12/11 03:40:12;;;;;;;33.45;15.70;;;;;;;;;;5038853;28;20022;-78
2022/12/11 03:42:39;;;;;;;28.77;14.75;;;;;;;;;;5037276;28;20029;-76
2022/12/11 03:45:06;;;;;;;28.67;15.57;;;;;;;;;;5036653;28;20022;-77
2022/12/11 03:47:32;;;;;;;30.38;16.20;;;;;;;;;;5036767;28;20080;-77
2022/12/11 03:49:59;;;;;;;28.10;15.25;;;;;;;;;;5036034;28;20026;-77
2022/12/11 03:52:26;;;;;;;30.58;16.27;;;;;;;;;;5038519;28;20418;-78
2022/12/11 03:54:52;;;;;;;32.28;15.65;;;;;;;;;;5039147;28;20021;-76
2022/12/11 03:57:20;;;;;;;29.15;15.52;;;;;;;;;;5037291;28;20025;-77
2022/12/11 03:59:47;;;;;;;27.88;14.90;;;;;;;;;;5038100;28;20068;-77
2022/12/11 04:02:13;;;;;;;30.73;15.60;;;;;;;;;;5040415;28;20445;-76
2022/12/11 04:04:42;;;;;;;32.15;16.25;;;;;;;;;;5042816;28;20053;-78
2022/12/11 04:07:08;;;;;;;29.63;15.52;;;;;;;;;;5049474;28;20026;-76
2022/12/11 04:09:34;;;;;;;32.58;16.88;;;;;;;;;;5053900;28;20033;-77
2022/12/11 04:12:00;;;;;;;34.05;15.63;;;;;;;;;;5050870;28;20026;-76
2022/12/11 04:17:11;;;;;;;38.10;18.35;;;;;;;;;;5052134;28;20060;-76
2022/12/11 04:25:09;;;;;;;37.55;19.17;;;;;;;;;;5035785;28;20087;-77
2022/12/11 04:27:50;;;;;;;37.13;18.42;;;;;;;;;;5033929;28;20029;-78
2022/12/11 04:30:17;;;;;;;35.72;18.73;;;;;;;;;;5035869;28;20021;-77
2022/12/11 04:32:44;;;;;;;35.47;18.48;;;;;;;;;;5038225;28;20021;-77
2022/12/11 04:35:10;;;;;;;38.78;18.77;;;;;;;;;;5033590;28;20113;-76
2022/12/11 04:37:37;;;;;;;41.25;20.85;;;;;;;;;;5035085;28;20466;-77
2022/12/11 04:40:04;;;;;;;34.50;17.73;;;;;;;;;;5036434;28;20052;-77
2022/12/11 04:42:30;;;;;;;38.55;19.23;;;;;;;;;;5036356;28;20053;-77
2022/12/11 04:44:56;;;;;;;33.13;18.27;;;;;;;;;;5040336;28;20021;-77
2022/12/11 04:47:22;;;;;;;35.58;18.13;;;;;;;;;;5038796;28;20033;-77
2022/12/11 04:49:48;;;;;;;37.28;19.75;;;;;;;;;;5042000;28;20032;-77
2022/12/11 04:52:14;;;;;;;38.25;19.75;;;;;;;;;;5041761;28;20423;-77
2022/12/11 04:54:41;;;;;;;34.30;17.77;;;;;;;;;;5040602;28;20021;-78
2022/12/11 04:57:07;;;;;;;35.67;17.75;;;;;;;;;;5035464;28;20363;-76
2022/12/11 04:59:33;;;;;;;33.10;17.35;;;;;;;;;;5036292;28;20043;-78
2022/12/11 05:01:59;;;;;;;34.85;17.63;;;;;;;;;;5038145;28;20025;-77
2022/12/11 05:04:25;;;;;;;37.25;17.27;;;;;;;;;;5038429;28;20116;-77
2022/12/11 05:06:51;;;;;;;33.92;17.50;;;;;;;;;;5033270;28;20038;-76
2022/12/11 05:09:17;;;;;;;32.70;18.60;;;;;;;;;;5034898;28;20025;-77
2022/12/11 05:11:43;;;;;;;33.63;18.52;;;;;;;;;;5033496;28;20037;-78
2022/12/11 05:14:09;;;;;;;35.33;17.88;;;;;;;;;;5034308;28;20025;-76
2022/12/11 05:16:35;;;;;;;33.95;18.20;;;;;;;;;;5034313;28;20029;-75
2022/12/11 05:19:01;;;;;;;35.17;18.77;;;;;;;;;;5034177;28;20036;-77
2022/12/11 05:21:27;;;;;;;34.72;18.38;;;;;;;;;;5035155;28;20075;-76
2022/12/11 05:23:53;;;;;;;33.15;17.85;;;;;;;;;;5036425;28;20033;-78
2022/12/11 05:26:20;;;;;;;37.17;19.10;;;;;;;;;;5035684;28;20025;-76
2022/12/11 05:28:46;;;;;;;36.78;18.67;;;;;;;;;;5035694;28;20087;-77
2022/12/11 05:31:12;;;;;;;35.63;18.98;;;;;;;;;;5034258;28;20025;-78
2022/12/11 05:33:38;;;;;;;36.60;18.75;;;;;;;;;;5033922;28;20045;-78
2022/12/11 05:36:04;;;;;;;41.75;19.50;;;;;;;;;;5033802;28;20029;-78
2022/12/11 05:38:30;;;;;;;35.03;18.00;;;;;;;;;;5033649;28;20025;-78
2022/12/11 05:40:57;;;;;;;34.58;18.55;;;;;;;;;;5034510;28;20036;-76
2022/12/11 05:43:23;;;;;;;36.63;19.17;;;;;;;;;;5033531;28;20028;-76
2022/12/11 05:45:49;;;;;;;37.28;18.05;;;;;;;;;;5033848;28;20108;-78
2022/12/11 05:48:15;;;;;;;35.20;19.02;;;;;;;;;;5034097;28;20032;-77
2022/12/11 05:50:41;;;;;;;36.10;18.33;;;;;;;;;;5032954;28;20029;-76
2022/12/11 05:53:07;;;;;;;34.97;18.98;;;;;;;;;;5037944;28;20052;-77
2022/12/11 05:55:36;;;;;;;36.20;19.35;;;;;;;;;;5037870;28;20024;-76
2022/12/11 05:58:02;;;;;;;35.65;19.85;;;;;;;;;;5037606;28;20105;-77
2022/12/11 06:00:28;;;;;;;37.75;19.88;;;;;;;;;;5039679;28;20021;-76
2022/12/11 06:02:54;;;;;;;36.80;19.33;;;;;;;;;;5042823;28;20084;-77
2022/12/11 06:05:20;;;;;;;35.17;19.65;;;;;;;;;;5042008;28;20029;-81
2022/12/11 06:07:46;;;;;;;36.15;20.45;;;;;;;;;;5042623;28;20036;-76
2022/12/11 06:10:12;;;;;;;37.25;18.92;;;;;;;;;;5047516;28;20095;-78
2022/12/11 06:12:38;;;;;;;35.75;18.88;;;;;;;;;;5048930;28;20023;-77
2022/12/11 06:15:04;;;;;;;33.78;18.73;;;;;;;;;;5039138;28;20052;-78
2022/12/11 06:17:30;;;;;;;41.08;20.83;;;;;;;;;;5034258;28;20024;-78
2022/12/11 06:19:56;;;;;;;37.28;20.35;;;;;;;;;;5055849;28;20045;-79
2022/12/11 06:22:22;;;;;;;38.53;20.02;;;;;;;;;;5055644;28;20109;-79
2022/12/11 06:24:48;;;;;;;39.67;21.55;;;;;;;;;;5046526;28;20039;-77
2022/12/11 06:27:14;;;;;;;41.00;20.75;;;;;;;;;;5040843;28;20025;-79
2022/12/11 06:29:40;;;;;;;43.35;21.13;;;;;;;;;;5047726;28;20052;-77
2022/12/11 06:32:06;;;;;;;37.78;20.40;;;;;;;;;;5047698;28;20033;-76
2022/12/11 06:34:32;;;;;;;38.67;21.02;;;;;;;;;;5048236;28;20056;-77
2022/12/11 06:36:58;;;;;;;39.13;20.92;;;;;;;;;;5039565;28;20036;-77
2022/12/11 06:39:24;;;;;;;43.67;22.45;;;;;;;;;;5051618;28;20094;-79
2022/12/11 06:41:49;;;;;;;42.80;20.80;;;;;;;;;;5051013;28;20037;-77
2022/12/11 06:44:15;;;;;;;38.45;21.15;;;;;;;;;;5040742;28;20086;-78
2022/12/11 06:46:41;;;;;;;42.22;22.00;;;;;;;;;;5054268;28;20033;-79
2022/12/11 06:49:07;;;;;;;44.88;21.50;;;;;;;;;;5064236;28;20029;-77
2022/12/11 06:51:33;;;;;;;40.50;21.38;;;;;;;;;;5057457;28;20036;-76
2022/12/11 06:53:59;;;;;;;45.30;21.90;;;;;;;;;;5039476;28;20090;-77
2022/12/11 06:56:25;;;;;;;43.00;22.27;;;;;;;;;;5038842;28;20082;-79
2022/12/11 06:58:51;;;;;;;44.85;22.48;;;;;;;;;;5040029;28;20360;-77
2022/12/11 07:01:22;;;;;;;48.92;23.45;;;;;;;;;;5040307;28;20040;-77
2022/12/11 07:03:48;;;;;;;56.03;26.13;;;;;;;;;;5039602;28;20352;-78
2022/12/11 07:06:15;;;;;;;54.70;24.80;;;;;;;;;;5038659;28;20049;-77
2022/12/11 07:08:41;;;;;;;51.08;25.13;;;;;;;;;;5044318;28;20044;-76
2022/12/11 07:11:09;;;;;;;51.05;26.52;;;;;;;;;;5030943;28;20070;-77
2022/12/11 07:13:35;;;;;;;48.33;25.33;;;;;;;;;;5039586;28;20025;-77
2022/12/11 07:16:03;;;;;;;48.85;25.63;;;;;;;;;;5039020;28;20041;-76
2022/12/11 07:18:30;;;;;;;47.85;24.73;;;;;;;;;;5038223;28;20030;-77
2022/12/11 07:20:59;;;;;;;48.00;24.58;;;;;;;;;;5037827;28;20502;-76
2022/12/11 07:23:28;;;;;;;44.35;23.13;;;;;;;;;;5046302;28;20029;-77
2022/12/11 07:25:55;;;;;;;45.03;22.80;;;;;;;;;;5042129;28;20116;-76
2022/12/11 07:28:21;;;;;;;50.08;25.45;;;;;;;;;;5042235;28;20037;-77
2022/12/11 07:30:47;;;;;;;55.83;27.27;;;;;;;;;;5041776;28;20036;-76
2022/12/11 07:33:13;;;;;;;65.93;32.17;;;;;;;;;;5039490;28;20032;-77
2022/12/11 07:35:39;;;;;;;58.60;27.52;;;;;;;;;;5039250;28;20018;-76
2022/12/11 07:38:05;;;;;;;51.38;27.27;;;;;;;;;;5039396;28;20057;-76
2022/12/11 07:40:31;;;;;;;48.53;25.58;;;;;;;;;;5039915;28;20484;-78
2022/12/11 07:42:57;;;;;;;47.67;25.05;;;;;;;;;;5042208;28;20105;-78
2022/12/11 07:45:25;;;;;;;50.58;24.73;;;;;;;;;;5038668;28;20036;-75
2022/12/11 07:47:51;;;;;;;49.70;25.55;;;;;;;;;;5038809;28;20021;-74
2022/12/11 07:50:17;;;;;;;50.17;25.00;;;;;;;;;;5034876;28;20133;-75
2022/12/11 07:52:43;;;;;;;54.45;27.10;;;;;;;;;;5036995;28;20504;-79
2022/12/11 07:55:09;;;;;;;54.53;26.70;;;;;;;;;;5039499;28;20018;-77
2022/12/11 07:57:35;;;;;;;57.05;27.85;;;;;;;;;;5038718;28;20017;-77
2022/12/11 08:00:01;;;;;;;50.78;26.25;;;;;;;;;;5040220;28;20025;-76
2022/12/11 08:02:27;;;;;;;51.40;26.83;;;;;;;;;;5035014;28;20112;-75
2022/12/11 08:04:53;;;;;;;51.35;26.27;;;;;;;;;;5036054;28;20057;-75
2022/12/11 08:07:19;;;;;;;65.00;31.50;;;;;;;;;;5034594;28;20474;-74
2022/12/11 08:09:45;;;;;;;56.47;25.75;;;;;;;;;;5035486;28;20083;-75
2022/12/11 08:12:12;;;;;;;57.25;28.23;;;;;;;;;;5035010;28;20026;-77
2022/12/11 08:14:38;;;;;;;60.13;28.50;;;;;;;;;;5039218;28;20506;-75
2022/12/11 08:17:04;;;;;;;56.38;27.20;;;;;;;;;;5045471;28;20060;-74
2022/12/11 08:19:30;;;;;;;58.22;28.35;;;;;;;;;;5045553;28;20383;-76
2022/12/11 08:21:56;;;;;;;58.42;29.50;;;;;;;;;;5038618;28;20040;-76
2022/12/11 08:24:22;;;;;;;51.03;25.17;;;;;;;;;;5035670;28;20029;-76
2022/12/11 08:26:48;;;;;;;46.78;24.25;;;;;;;;;;5035586;28;20055;-76
2022/12/11 08:29:14;;;;;;;51.78;26.20;;;;;;;;;;5035241;28;20029;-76
2022/12/11 08:31:40;;;;;;;52.63;26.20;;;;;;;;;;5036768;28;20026;-76
2022/12/11 08:34:06;;;;;;;57.08;26.90;;;;;;;;;;5041758;28;20030;-77
2022/12/11 08:36:33;;;;;;;53.03;26.38;;;;;;;;;;5042254;28;20026;-75
2022/12/11 08:39:00;;;;;;;52.03;26.15;;;;;;;;;;5045242;28;20029;-77
2022/12/11 08:41:27;;;;;;;61.28;26.15;;;;;;;;;;5048626;28;20041;-79
2022/12/11 08:43:54;;;;;;;52.20;26.77;;;;;;;;;;5040770;28;20466;-74
2022/12/11 08:46:22;;;;;;;51.95;25.30;;;;;;;;;;5033827;28;20489;-76
2022/12/11 08:48:48;;;;;;;53.67;26.92;;;;;;;;;;5039881;28;20048;-76
2022/12/11 08:51:16;;;;;;;56.97;28.30;;;;;;;;;;5046808;28;20049;-77
2022/12/11 08:53:42;;;;;;;55.90;27.77;;;;;;;;;;5044889;28;20026;-76
2022/12/11 08:56:09;;;;;;;57.92;27.63;;;;;;;;;;5046361;28;20021;-75
2022/12/11 08:58:35;;;;;;;55.75;27.08;;;;;;;;;;5047810;28;20036;-76
2022/12/11 09:01:06;;;;;;;52.45;27.15;;;;;;;;;;5034584;28;20033;-76
2022/12/11 09:03:32;;;;;;;56.58;28.17;;;;;;;;;;5034935;28;20029;-75
2022/12/11 09:05:58;;;;;;;59.33;27.63;;;;;;;;;;5034415;28;20032;-75
2022/12/11 09:08:24;;;;;;;57.70;26.65;;;;;;;;;;5033277;28;20025;-76
2022/12/11 09:10:50;;;;;;;57.03;27.67;;;;;;;;;;5034114;28;20049;-74
2022/12/11 09:13:16;;;;;;;53.40;26.02;;;;;;;;;;5034067;28;20108;-75
2022/12/11 09:15:42;;;;;;;56.38;25.52;;;;;;;;;;5036981;28;20140;-77
2022/12/11 09:18:08;;;;;;;47.10;23.33;;;;;;;;;;5038266;28;20036;-79
2022/12/11 09:20:34;;;;;;;47.88;22.75;;;;;;;;;;5038103;28;20021;-76
2022/12/11 09:23:01;;;;;;;46.03;23.33;;;;;;;;;;5042952;28;20037;-76
2022/12/11 09:25:27;;;;;;;46.58;23.83;;;;;;;;;;5042600;28;20021;-77
2022/12/11 09:27:52;;;;;;;47.00;23.85;;;;;;;;;;5044960;28;20053;-78
2022/12/11 09:30:19;;;;;;;44.88;23.17;;;;;;;;;;5042503;28;20030;-77
2022/12/11 09:32:44;;;;;;;44.15;22.27;;;;;;;;;;5044819;28;20506;-76
2022/12/11 09:35:10;;;;;;;45.55;22.80;;;;;;;;;;5039593;28;20028;-76
2022/12/11 09:37:36;;;;;;;44.85;23.42;;;;;;;;;;5033528;28;20025;-76
2022/12/11 09:40:02;;;;;;;49.67;25.70;;;;;;;;;;5034223;28;20028;-78
2022/12/11 09:42:35;;;;;;;48.95;23.67;;;;;;;;;;5032497;28;20394;-77
2022/12/11 09:45:05;;;;;;;43.88;23.02;;;;;;;;;;5033949;28;20422;-77
2022/12/11 09:47:35;;;;;;;47.33;23.25;;;;;;;;;;5033361;28;20032;-77
2022/12/11 09:50:12;;;;;;;46.40;23.38;;;;;;;;;;5034136;28;20129;-77
2022/12/11 09:52:53;;;;;;;46.45;22.55;;;;;;;;;;5035070;28;20030;-76
2022/12/11 09:55:23;;;;;;;53.17;26.30;;;;;;;;;;5041854;28;20025;-77
2022/12/11 09:58:06;;;;;;;53.08;25.02;;;;;;;;;;5047146;28;20047;-78
2022/12/11 10:00:39;;;;;;;46.70;22.55;;;;;;;;;;5050137;28;20028;-77
2022/12/11 10:03:14;;;;;;;43.83;21.50;;;;;;;;;;5044087;28;20032;-77
2022/12/11 10:05:59;;;;;;;43.80;21.17;;;;;;;;;;5038457;28;20036;-78
2022/12/11 10:08:43;;;;;;;42.42;21.42;;;;;;;;;;5036446;28;20040;-78
2022/12/11 10:11:27;;;;;;;44.95;22.40;;;;;;;;;;5034484;28;20433;-75
2022/12/11 10:14:00;;;;;;;43.58;21.45;;;;;;;;;;5033248;28;20022;-77
2022/12/11 10:16:36;;;;;;;41.05;21.17;;;;;;;;;;5032948;28;20437;-77
2022/12/11 10:19:02;;;;;;;43.35;21.60;;;;;;;;;;5031362;28;20111;-77
2022/12/11 10:21:32;;;;;;;42.75;21.13;;;;;;;;;;5033721;28;20426;-76
2022/12/11 10:24:03;;;;;;;44.28;20.75;;;;;;;;;;5031621;28;20087;-76
2022/12/11 10:26:29;;;;;;;39.88;20.40;;;;;;;;;;5032355;28;20022;-77
2022/12/11 10:28:59;;;;;;;43.65;21.95;;;;;;;;;;5033088;28;20041;-77
2022/12/11 10:31:25;;;;;;;43.55;20.98;;;;;;;;;;5034109;28;20021;-78
2022/12/11 10:33:55;;;;;;;41.58;21.38;;;;;;;;;;5035392;28;20533;-77
2022/12/11 10:36:26;;;;;;;43.00;21.50;;;;;;;;;;5039474;28;20073;-77
2022/12/11 10:38:52;;;;;;;40.72;21.35;;;;;;;;;;5046759;28;20478;-76
2022/12/11 10:41:20;;;;;;;42.33;20.38;;;;;;;;;;5035519;28;20025;-78
2022/12/11 10:43:47;;;;;;;40.83;20.77;;;;;;;;;;5034545;28;20509;-77
2022/12/11 10:46:15;;;;;;;41.33;21.08;;;;;;;;;;5031604;28;20035;-78
2022/12/11 10:48:45;;;;;;;43.08;21.20;;;;;;;;;;5029574;28;20057;-76
2022/12/11 10:51:11;;;;;;;44.13;21.70;;;;;;;;;;5037466;28;20025;-76
2022/12/11 10:53:39;;;;;;;42.65;21.55;;;;;;;;;;5052600;28;20025;-78
2022/12/11 10:56:05;;;;;;;44.42;22.77;;;;;;;;;;5052869;28;20033;-78
2022/12/11 10:58:32;;;;;;;45.92;22.75;;;;;;;;;;5047633;28;20395;-76
2022/12/11 11:01:07;;;;;;;41.67;22.15;;;;;;;;;;5033977;28;20028;-77
2022/12/11 11:03:35;;;;;;;42.17;21.38;;;;;;;;;;5035663;28;20029;-78
2022/12/11 11:06:21;;;;;;;44.13;22.00;;;;;;;;;;5041315;28;20105;-77
2022/12/11 11:08:48;;;;;;;45.85;21.48;;;;;;;;;;5047968;28;20132;-77
2022/12/11 11:11:28;;;;;;;43.78;21.02;;;;;;;;;;5049281;28;20093;-77
2022/12/11 11:14:04;;;;;;;46.78;21.73;;;;;;;;;;5047277;28;20184;-78
2022/12/11 11:16:31;;;;;;;42.58;21.60;;;;;;;;;;5044966;28;20017;-76
2022/12/11 11:18:58;;;;;;;41.00;20.20;;;;;;;;;;5039616;28;20445;-76
2022/12/11 11:21:25;;;;;;;41.35;20.63;;;;;;;;;;5034116;28;20021;-77
2022/12/11 11:23:52;;;;;;;44.17;22.20;;;;;;;;;;5035454;28;20033;-77
2022/12/11 11:26:18;;;;;;;44.47;21.75;;;;;;;;;;5038612;28;20072;-76
2022/12/11 11:28:57;;;;;;;42.17;21.95;;;;;;;;;;5035277;28;20025;-78
2022/12/11 11:31:35;;;;;;;41.50;20.67;;;;;;;;;;5035658;28;20036;-76
2022/12/11 11:34:05;;;;;;;44.70;22.45;;;;;;;;;;5032010;28;20022;-77
2022/12/11 11:36:35;;;;;;;44.35;22.35;;;;;;;;;;5034195;28;20021;-77
2022/12/11 11:39:03;;;;;;;41.97;21.98;;;;;;;;;;5036197;28;20021;-77
2022/12/11 11:42:05;;;;;;;42.42;21.30;;;;;;;;;;5035318;28;20096;-76
2022/12/11 11:44:35;;;;;;;43.30;21.27;;;;;;;;;;5004719;28;20034;-76
2022/12/11 11:47:08;;;;;;;40.35;19.60;;;;;;;;;;5032039;28;20041;-77
2022/12/11 11:49:44;;;;;;;39.08;19.73;;;;;;;;;;5039979;28;20041;-76
2022/12/11 11:52:13;;;;;;;34.67;19.08;;;;;;;;;;5037997;28;20026;-77
2022/12/11 11:54:59;;;;;;;36.83;19.73;;;;;;;;;;5036381;28;20152;-77
2022/12/11 11:57:31;;;;;;;32.63;17.52;;;;;;;;;;5036319;28;20018;-77
2022/12/11 12:00:08;;;;;;;32.55;17.63;;;;;;;;;;5037341;28;20030;-78
2022/12/11 12:02:34;;;;;;;30.45;17.70;;;;;;;;;;5049912;28;20037;-77
2022/12/11 12:05:02;;;;;;;35.08;19.92;;;;;;;;;;5034178;28;20156;-77
2022/12/11 12:07:45;;;;;;;35.90;18.95;;;;;;;;;;5033455;28;20085;-75
2022/12/11 12:10:14;;;;;;;32.55;18.25;;;;;;;;;;5034662;28;20489;-76
2022/12/11 12:12:43;;;;;;;35.15;19.50;;;;;;;;;;5035524;28;20489;-77
2022/12/11 12:15:17;;;;;;;33.00;17.50;;;;;;;;;;5035990;28;20276;-78
2022/12/11 12:17:50;;;;;;;31.33;17.75;;;;;;;;;;5033140;28;20026;-76
2022/12/11 12:20:22;;;;;;;28.25;15.82;;;;;;;;;;5055014;23;20421;-76
2022/12/11 12:22:56;;;;;;;31.23;17.63;;;;;;;;;;5032586;28;20034;-76
2022/12/11 12:25:22;;;;;;;31.42;18.02;;;;;;;;;;5032673;28;20018;-75
2022/12/11 12:28:10;;;;;;;34.42;19.05;;;;;;;;;;5033056;28;20056;-75
2022/12/11 12:30:54;;;;;;;30.27;17.55;;;;;;;;;;5010956;28;20034;-73
2022/12/11 12:33:42;;;;;;;30.80;17.83;;;;;;;;;;5028704;28;20523;-75
2022/12/11 12:36:11;;;;;;;28.77;16.30;;;;;;;;;;5015258;28;20273;-75
2022/12/11 12:38:46;;;;;;;28.00;16.20;;;;;;;;;;5014032;28;20030;-75
2022/12/11 12:41:20;;;;;;;26.60;16.63;;;;;;;;;;5013670;28;20033;-75
2022/12/11 12:43:46;;;;;;;;;;;;;;;;;;5014188;28;20132;-74
2022/12/11 12:46:33;;;;;;;26.50;16.98;;;;;;;;;;5015828;28;19905;-75
2022/12/11 12:49:01;;;;;;;31.25;18.25;;;;;;;;;;5017915;28;20342;-78
2022/12/11 12:51:27;;;;;;;30.15;18.27;;;;;;;;;;5019963;28;20124;-77
2022/12/11 12:53:55;;;;;;;33.40;17.38;;;;;;;;;;5018734;28;20048;-77
2022/12/11 12:56:21;;;;;;;28.45;16.63;;;;;;;;;;5016491;28;20061;-78
2022/12/11 12:58:47;;;;;;;30.23;17.33;;;;;;;;;;5018707;28;20034;-77
2022/12/11 13:01:16;;;;;;;29.73;17.60;;;;;;;;;;5014786;28;20088;-75
2022/12/11 13:03:50;;;;;;;31.35;17.55;;;;;;;;;;5017745;28;20026;-77
2022/12/11 13:06:27;;;;;;;32.47;17.45;;;;;;;;;;5019465;28;20112;-80
2022/12/11 13:08:54;;;;;;;30.15;17.10;;;;;;;;;;5020732;28;20034;-78
2022/12/11 13:11:21;;;;;;;29.70;16.85;;;;;;;;;;5026496;28;20482;-80
2022/12/11 13:13:51;;;;;;;32.10;16.55;;;;;;;;;;5027507;28;20026;-76
2022/12/11 13:16:17;;;;;;;35.50;17.92;;;;;;;;;;5022362;28;20034;-78
2022/12/11 13:18:44;;;;;;;29.45;17.27;;;;;;;;;;5025460;28;20084;-77
2022/12/11 13:21:28;;;;;;;33.72;18.13;;;;;;;;;;5022436;28;20018;-77
2022/12/11 13:23:54;;;;;;;30.98;17.85;;;;;;;;;;5030592;28;20121;-77
2022/12/11 13:26:30;;;;;;;30.83;17.75;;;;;;;;;;5025308;28;20045;-82
2022/12/11 13:28:57;;;;;;;35.05;19.15;;;;;;;;;;5016898;28;20038;-80
2022/12/11 13:31:44;;;;;;;30.60;17.73;;;;;;;;;;5020932;28;20029;-74
2022/12/11 13:34:15;;;;;;;32.28;18.60;;;;;;;;;;5020079;28;20025;-77
2022/12/11 13:36:45;;;;;;;31.60;19.05;;;;;;;;;;5020548;28;20076;-77
2022/12/11 13:39:38;;;;;;;40.90;19.90;;;;;;;;;;5019056;28;20026;-79
2022/12/11 13:42:05;;;;;;;33.05;18.45;;;;;;;;;;5023882;28;20084;-77
2022/12/11 13:44:34;;;;;;;34.10;19.33;;;;;;;;;;5020837;28;20025;-79
2022/12/11 13:47:01;;;;;;;36.72;19.70;;;;;;;;;;5019829;28;20045;-77
2022/12/11 13:49:29;;;;;;;43.90;21.20;;;;;;;;;;5017079;28;20037;-78
2022/12/11 13:51:57;;;;;;;33.85;18.88;;;;;;;;;;5022891;28;20081;-78
2022/12/11 13:54:23;;;;;;;34.33;19.63;;;;;;;;;;5024043;28;20029;-76
2022/12/11 13:56:57;;;;;;;32.97;17.55;;;;;;;;;;5021339;28;20026;-78
2022/12/11 13:59:25;;;;;;;41.35;20.30;;;;;;;;;;5016726;28;20026;-76
2022/12/11 14:01:53;;;;;;;44.42;20.40;;;;;;;;;;5019428;28;20041;-77
2022/12/11 14:04:20;;;;;;;39.72;20.10;;;;;;;;;;5025755;28;20032;-77
2022/12/11 14:06:46;;;;;;;39.85;19.88;;;;;;;;;;5023037;28;20021;-76
2022/12/11 14:09:16;;;;;;;39.85;19.77;;;;;;;;;;5016750;28;20022;-75
2022/12/11 14:11:43;;;;;;;36.90;19.90;;;;;;;;;;5014165;28;20029;-73
2022/12/11 14:14:21;;;;;;;39.67;20.35;;;;;;;;;;5014854;28;20475;-75
2022/12/11 14:16:49;;;;;;;34.90;18.58;;;;;;;;;;5010134;28;20022;-74
2022/12/11 14:19:16;;;;;;;41.58;20.15;;;;;;;;;;5009103;28;20038;-76
2022/12/11 14:21:43;;;;;;;40.90;20.58;;;;;;;;;;5014541;28;20032;-76
2022/12/11 14:24:13;;;;;;;35.53;20.08;;;;;;;;;;5013387;28;20033;-75
2022/12/11 14:26:39;;;;;;;37.75;19.90;;;;;;;;;;5015431;28;20558;-76
2022/12/11 14:29:05;;;;;;;38.00;21.00;;;;;;;;;;5025517;28;20022;-74
2022/12/11 14:31:33;;;;;;;45.72;23.27;;;;;;;;;;5022479;28;20399;-75
2022/12/11 14:34:02;;;;;;;41.78;21.13;;;;;;;;;;5015972;28;20022;-76
2022/12/11 14:36:29;;;;;;;44.45;22.30;;;;;;;;;;5018778;28;20084;-76